createdAt,value
2023-03-06T00:03:48.403Z,35.00
2023-03-06T00:08:50.916Z,43.20
2023-03-06T00:13:58.824Z,50.40
2023-03-06T00:19:00.583Z,83.10
2023-03-06T00:24:02.298Z,68.80
2023-03-06T00:29:04.151Z,60.10
2023-03-06T00:34:05.912Z,44.40
2023-03-06T00:39:08.184Z,39.60
2023-03-06T00:44:10.654Z,32.80
2023-03-06T00:49:15.099Z,68.60
2023-03-06T00:54:36.875Z,53.70
2023-03-06T00:59:38.575Z,44.80
2023-03-06T01:04:40.360Z,44.10
2023-03-06T01:09:42.053Z,41.20
2023-03-06T01:14:43.886Z,63.50
2023-03-06T01:19:45.577Z,40.10
2023-03-06T01:24:48.632Z,33.80
2023-03-06T01:29:50.323Z,41.40
2023-03-06T01:34:52.080Z,34.90
2023-03-06T01:39:53.762Z,46.00
2023-03-06T01:45:06.474Z,37.30
2023-03-06T01:50:11.895Z,31.10
2023-03-06T01:55:18.079Z,32.40
2023-03-06T02:00:26.034Z,29.30
2023-03-06T02:05:27.944Z,48.80
2023-03-06T02:10:30.144Z,36.20
2023-03-06T02:15:31.999Z,30.90
2023-03-06T02:20:40.290Z,32.30
2023-03-06T02:25:50.478Z,29.80
2023-03-06T02:30:54.935Z,43.10
2023-03-06T02:36:03.439Z,69.40
2023-03-06T02:41:08.251Z,41.40
2023-03-06T02:46:10.261Z,34.10
2023-03-06T02:51:12.306Z,34.80
2023-03-06T02:56:15.353Z,28.50
2023-03-06T03:01:17.765Z,27.60
2023-03-06T03:06:19.918Z,41.70
2023-03-06T03:11:21.986Z,38.50
2023-03-06T03:16:23.931Z,30.90
2023-03-06T03:21:26.126Z,33.30
2023-03-06T03:26:29.045Z,32.30
2023-03-06T03:31:35.513Z,29.00
2023-03-06T03:36:38.136Z,46.10
2023-03-06T03:41:41.332Z,32.60
2023-03-06T03:46:44.107Z,27.30
2023-03-06T03:51:50.258Z,23.50
2023-03-06T03:56:52.958Z,23.70
2023-03-06T04:01:59.460Z,22.70
2023-03-06T04:07:02.349Z,26.90
2023-03-06T04:12:04.330Z,43.90
2023-03-06T04:17:07.101Z,28.90
2023-03-06T04:22:09.172Z,24.70
2023-03-06T04:27:12.111Z,19.30
2023-03-06T04:32:14.949Z,21.50
2023-03-06T04:37:20.981Z,24.90
2023-03-06T04:42:23.168Z,21.00
2023-03-06T04:47:24.960Z,56.10
2023-03-06T04:52:26.646Z,38.30
2023-03-06T04:57:28.294Z,34.80
2023-03-06T05:02:30.302Z,33.30
2023-03-06T05:07:32.140Z,33.30
2023-03-06T05:12:38.037Z,39.90
2023-03-06T05:17:40.165Z,76.60
2023-03-06T05:22:42.418Z,46.70
2023-03-06T05:27:44.128Z,40.10
2023-03-06T05:32:45.882Z,45.80
2023-03-06T05:37:48.679Z,45.10
2023-03-06T05:47:52.359Z,67.50
2023-03-06T05:52:54.365Z,38.30
2023-03-06T05:57:56.186Z,45.90
2023-03-06T06:03:01.128Z,43.40
2023-03-06T06:08:03.142Z,42.50
2023-03-06T06:13:05.335Z,42.10
2023-03-06T06:18:07.083Z,65.30
2023-03-06T06:23:11.423Z,39.90
2023-03-06T06:28:13.159Z,40.90
2023-03-06T06:33:14.830Z,37.10
2023-03-06T06:38:16.770Z,35.80
2023-03-06T06:43:18.425Z,36.90
2023-03-06T06:48:20.204Z,41.20
2023-03-06T06:53:22.096Z,27.90
2023-03-06T06:58:23.948Z,25.00
2023-03-06T07:03:25.632Z,29.50
2023-03-06T07:08:27.934Z,26.40
2023-03-06T07:13:29.863Z,33.10
2023-03-06T07:18:31.649Z,29.80
2023-03-06T07:23:33.454Z,22.20
2023-03-06T07:28:46.290Z,24.40
2023-03-06T07:33:54.822Z,24.90
2023-03-06T07:38:56.566Z,43.80
2023-03-06T07:43:58.587Z,25.20
2023-03-06T07:49:00.302Z,18.40
2023-03-06T07:54:02.072Z,25.60
2023-03-06T07:59:03.994Z,24.00
2023-03-06T08:04:06.276Z,19.40
2023-03-06T08:09:08.144Z,17.00
2023-03-06T08:14:09.848Z,22.40
2023-03-06T08:19:11.557Z,19.00
2023-03-06T08:24:16.603Z,19.70
2023-03-06T08:29:18.723Z,18.10
2023-03-06T08:34:24.321Z,20.00
2023-03-06T08:39:26.130Z,17.40
2023-03-06T08:44:27.835Z,20.20
2023-03-06T08:49:30.133Z,20.70
2023-03-06T08:54:34.175Z,19.00
2023-03-06T08:59:37.140Z,17.90
2023-03-06T09:04:38.823Z,16.40
2023-03-06T09:09:40.797Z,18.20
2023-03-06T09:14:42.483Z,19.60
2023-03-06T09:19:44.372Z,14.80
2023-03-06T09:24:46.413Z,15.60
2023-03-06T09:29:48.968Z,18.10
2023-03-06T09:34:50.709Z,17.50
2023-03-06T09:39:52.476Z,17.60
2023-03-06T09:44:58.301Z,16.00
2023-03-06T09:50:24.366Z,16.60
2023-03-06T09:55:31.205Z,18.20
2023-03-06T10:00:44.279Z,15.90
2023-03-06T10:05:53.852Z,19.00
2023-03-06T10:11:18.508Z,14.40
2023-03-06T10:16:30.611Z,18.40
2023-03-06T10:22:00.141Z,10.80
2023-03-06T10:27:27.070Z,19.80
2023-03-06T10:32:48.564Z,11.30
2023-03-06T10:37:51.025Z,13.50
2023-03-06T10:43:05.110Z,13.50
2023-03-06T10:48:19.753Z,13.10
2023-03-06T10:53:29.017Z,12.00
2023-03-06T10:58:32.614Z,10.70
2023-03-06T11:03:36.602Z,11.70
2023-03-06T11:08:39.836Z,9.80
2023-03-06T11:13:43.756Z,7.20
2023-03-06T11:24:14.283Z,18.70
2023-03-06T11:29:47.221Z,9.60
2023-03-06T11:34:59.785Z,13.50
2023-03-06T11:40:11.972Z,11.20
2023-03-06T11:45:37.368Z,15.20
2023-03-06T11:51:06.395Z,15.10
2023-03-06T11:56:43.720Z,19.10
2023-03-06T12:01:48.183Z,14.60
2023-03-06T12:07:31.802Z,14.50
2023-03-06T12:13:12.522Z,14.10
2023-03-06T12:18:41.499Z,13.60
2023-03-06T12:24:02.479Z,15.30
2023-03-06T12:30:01.887Z,12.40
2023-03-06T12:35:35.665Z,8.30
2023-03-06T12:40:55.585Z,20.50
2023-03-06T12:46:03.586Z,13.50
2023-03-06T12:51:07.480Z,13.00
2023-03-06T12:56:13.414Z,8.60
2023-03-06T13:01:52.590Z,17.30
2023-03-06T13:07:22.788Z,11.90
2023-03-06T13:12:36.398Z,13.20
2023-03-06T13:17:38.714Z,7.90
2023-03-06T13:22:42.619Z,10.70
2023-03-06T13:27:53.354Z,8.40
2023-03-06T13:32:56.144Z,6.50
2023-03-06T13:38:00.976Z,7.00
2023-03-06T13:43:15.754Z,9.50
2023-03-06T13:48:43.073Z,9.50
2023-03-06T13:54:04.120Z,9.50
2023-03-06T13:59:31.967Z,13.70
2023-03-06T14:04:46.197Z,7.80
2023-03-06T14:09:56.108Z,8.40
2023-03-06T14:15:12.232Z,8.70
2023-03-06T14:20:17.669Z,13.90
2023-03-06T14:25:31.406Z,11.20
2023-03-06T14:30:33.427Z,9.90
2023-03-06T14:35:35.187Z,9.00
2023-03-06T14:40:44.975Z,11.40
2023-03-06T14:45:57.775Z,9.80
2023-03-06T14:50:59.473Z,8.60
2023-03-06T14:56:06.043Z,7.90
2023-03-06T15:01:16.092Z,9.30
2023-03-06T15:06:35.805Z,12.60
2023-03-06T15:12:04.915Z,9.40
2023-03-06T15:17:19.201Z,10.90
2023-03-06T15:22:25.346Z,14.30
2023-03-06T15:27:30.496Z,12.40
2023-03-06T15:32:34.867Z,12.30
2023-03-06T15:37:36.581Z,13.90
2023-03-06T15:42:38.287Z,16.80
2023-03-06T15:47:39.945Z,21.20
2023-03-06T15:52:41.825Z,15.30
2023-03-06T15:57:56.985Z,15.60
2023-03-06T16:02:59.051Z,20.90
2023-03-06T16:08:00.727Z,16.30
2023-03-06T16:13:06.688Z,13.70
2023-03-06T16:18:11.686Z,17.80
2023-03-06T16:23:15.041Z,22.40
2023-03-06T16:28:17.017Z,24.20
2023-03-06T16:33:18.693Z,22.70
2023-03-06T16:38:20.355Z,22.70
2023-03-06T16:43:22.079Z,22.00
2023-03-06T16:48:23.844Z,17.50
2023-03-06T16:53:25.750Z,21.70
2023-03-06T16:58:29.938Z,16.40
2023-03-06T17:03:31.629Z,18.50
2023-03-06T17:08:33.324Z,18.30
2023-03-06T17:13:35.087Z,27.50
2023-03-06T17:18:36.797Z,35.90
2023-03-06T17:23:38.752Z,27.00
2023-03-06T17:28:41.656Z,17.30
2023-03-06T17:33:44.005Z,14.70
2023-03-06T17:38:46.026Z,18.00
2023-03-06T17:43:47.797Z,24.00
2023-03-06T17:48:49.528Z,15.70
2023-03-06T17:53:52.254Z,21.90
2023-03-06T17:58:54.058Z,23.80
2023-03-06T18:03:56.443Z,37.60
2023-03-06T18:08:58.474Z,25.00
2023-03-06T18:14:00.196Z,24.60
2023-03-06T18:19:02.293Z,21.50
2023-03-06T18:24:04.161Z,27.30
2023-03-06T18:29:06.056Z,29.70
2023-03-06T18:34:10.990Z,30.50
2023-03-06T18:39:14.035Z,38.90
2023-03-06T18:44:17.623Z,28.00
2023-03-06T18:49:19.509Z,29.30
2023-03-06T18:54:21.584Z,24.20
2023-03-06T18:59:23.708Z,33.20
2023-03-06T19:04:26.165Z,33.70
2023-03-06T19:09:28.047Z,40.30
2023-03-06T19:14:30.203Z,32.60
2023-03-06T19:19:32.078Z,31.40
2023-03-06T19:24:34.151Z,26.20
2023-03-06T19:29:36.282Z,25.20
2023-03-06T19:34:37.960Z,33.10
2023-03-06T19:39:39.686Z,31.10
2023-03-06T19:44:41.498Z,37.10
2023-03-06T19:49:43.507Z,43.20
2023-03-06T19:54:47.225Z,39.90
2023-03-06T19:59:51.365Z,37.40
2023-03-06T20:04:54.567Z,31.70
2023-03-06T20:10:00.414Z,28.70
2023-03-06T20:15:03.714Z,32.40
2023-03-06T20:20:06.098Z,26.90
2023-03-06T20:25:10.685Z,25.00
2023-03-06T20:35:14.255Z,18.50
2023-03-06T20:40:16.036Z,21.20
2023-03-06T20:45:17.803Z,28.10
2023-03-06T20:50:19.457Z,23.30
2023-03-06T20:55:21.363Z,24.20
2023-03-06T21:00:23.026Z,22.90
2023-03-06T21:05:24.738Z,18.80
2023-03-06T21:10:26.509Z,20.50
2023-03-06T21:15:30.054Z,19.50
2023-03-06T21:20:33.686Z,24.80
2023-03-06T21:25:35.451Z,24.00
2023-03-06T21:30:37.170Z,21.70
2023-03-06T21:35:41.400Z,20.00
2023-03-06T21:40:44.679Z,24.90
2023-03-06T21:45:48.061Z,27.50
2023-03-06T21:50:49.748Z,34.10
2023-03-06T21:55:51.491Z,27.60
2023-03-06T22:00:53.712Z,28.00
2023-03-06T22:05:56.669Z,26.50
2023-03-06T22:10:59.056Z,30.40
2023-03-06T22:16:07.793Z,31.50
2023-03-06T22:21:12.199Z,62.80
2023-03-06T22:26:15.440Z,42.30
2023-03-06T22:31:26.307Z,46.80
2023-03-06T22:36:32.718Z,57.00
2023-03-06T22:41:35.620Z,39.20
2023-03-06T22:46:57.839Z,53.10
2023-03-06T22:52:19.686Z,48.90
2023-03-06T22:57:21.659Z,45.10
2023-03-06T23:02:23.535Z,38.70
2023-03-06T23:07:25.330Z,48.30
2023-03-06T23:12:35.643Z,44.20
2023-03-06T23:17:57.020Z,44.10
2023-03-06T23:23:18.099Z,48.90
2023-03-06T23:28:20.118Z,46.70
2023-03-06T23:33:22.467Z,38.80
2023-03-06T23:38:24.143Z,40.90
2023-03-06T23:43:25.874Z,38.40
2023-03-06T23:48:27.883Z,28.40
2023-03-06T23:53:29.580Z,34.40
2023-03-06T23:58:31.834Z,34.50
